Portada
METAR-TAF:

METAR-TAF

Aeropuertos :

Argel, Argelia

Aeropuerto Internacional Houari Boumedienne

latitud: 36-43N, longitud: 003-15E, altitud: 25 m

Observación

El informe se hizo hace 46 minutos, a las 12:30 UTC
Viento 11 kt del norte
Temperatura 29°C
Humedad 33%
Presión 1022 hPa
Visibilidad 10 km o más
Escasas nubes a una altura de 2600 ft

METAR: DAAG 171230Z 35011KT 9999 FEW026 29/11 Q1022

Hora: 14:16 (13:16 UTC)

Pronóstico

El informe se hizo hace 2 horas y 16 minutos, a las 11:00 UTC
Pronóstico válido del 17 a las 12 UTC al 18 a las 12 UTC
Viento 12 kt del oeste-noroeste
Visibilidad 10 km o más
sin nubes por debajo de 1500 m y sin presencia de cumulonimbus.
Evolucionando progresivamente
del 17 a las 18 UTC al 17 a las 21 UTC
Viento 2 kt con dirección variable
Evolucionando progresivamente
del 18 a las 09 UTC al 18 a las 12 UTC
Viento 10 kt del oeste-noroeste

TAF: DAAG 171100Z 1712/1812 30012KT CAVOK BECMG 1718/1721 VRB02KT BECMG 1809/1812 30010KT

Observaciones y pronósticos meteorológicos de más de 4000 aeropuertos (mensajes METAR y TAF).

Los puntos amarillos y rojos representan las estaciones disponibles.

Ponga el ratón en el punto deseado para ver el nombre de la estación.

Haga clic para ver las observaciones y los pronósticos meteorológicos.

Para cambiar el mapa : haga clic en los botones verdes con una cruz de color negro para hacer un zoom, en el botón verde con un guión para alejar o en las flechas verdes para mapas adyacentes.


METAR-TAF: